PWSweather.com
Personal Weather Stations
Station Observations
AF1HS
North Haven, CT 06473

North Haven, CT 06473

Lat: 41.3733, Lon: -72.8413

Elevation: 85.3

Station Type: Oregon Scientific WMR968

http://www.af1hs.com/wx/index.php

High Low Average
Temperature 46.9°F8.3°C 25.3°F-3.7°C 36.1°F2.3°C
Dew Point 22.0°F-5.6°C 7.6°F-13.6°C 15.1°F-9.4°C
Winds 12.7 mph 20.4 kmh Calm Calm 5.0 mph NW8.0 kmh NW
Wind Gusts 19.6 mph31.5 kmh -- 8.0 mph12.9 kmh
Humidity 53% 35% 42%
Pressure 30.40 in1029.5 mb 29.90 in1012.5 mb -
Precipitation 0.00 in0.0 mm - -
Hour Temp Dew Point Humidity Winds Wind Gusts Pressure Precip Precip Rate Daily Precip Total
12:00 AM 35.2°F1.8°C 19.8°F-6.8°C 53% 4.6 mph NW7.4 kmh NW 5.8 mph9.3 kmh 29.90 in1012.5 mb - 0.00 in0.0 mm 0.00 in0.0 mm
12:10 AM 35.2°F1.8°C 19.4°F-7.0°C 52% 6.9 mph NW11.1 kmh NW 10.4 mph16.7 kmh 29.90 in1012.5 mb - 0.00 in0.0 mm 0.00 in0.0 mm
12:20 AM 35.1°F1.7°C 18.7°F-7.4°C 51% 5.8 mph NW9.3 kmh NW 8.1 mph13.0 kmh 29.90 in1012.5 mb - 0.00 in0.0 mm 0.00 in0.0 mm
12:30 AM 34.9°F1.6°C 18.6°F-7.4°C 51% 3.5 mph W5.6 kmh W 3.5 mph5.6 kmh 29.90 in1012.5 mb - 0.00 in0.0 mm 0.00 in0.0 mm
12:40 AM 34.4°F1.3°C 18.1°F-7.7°C 51% 2.3 mph W3.7 kmh W 6.9 mph11.1 kmh 29.90 in1012.5 mb - 0.00 in0.0 mm 0.00 in0.0 mm
12:50 AM 34.0°F1.1°C 17.3°F-8.2°C 50% 5.8 mph W9.3 kmh W 10.4 mph16.7 kmh 29.90 in1012.5 mb - 0.00 in0.0 mm 0.00 in0.0 mm
01:00 AM 33.8°F1.0°C 16.6°F-8.6°C 49% 3.5 mph W5.6 kmh W 8.1 mph13.0 kmh 29.90 in1012.5 mb - 0.00 in0.0 mm 0.00 in0.0 mm
01:10 AM 33.4°F0.8°C 16.3°F-8.7°C 49% 4.6 mph W7.4 kmh W 8.1 mph13.0 kmh 29.90 in1012.5 mb - 0.00 in0.0 mm 0.00 in0.0 mm
01:20 AM 33.1°F0.6°C 16.4°F-8.7°C 50% 4.6 mph W7.4 kmh W 8.1 mph13.0 kmh 29.90 in1012.5 mb - 0.00 in0.0 mm 0.00 in0.0 mm
01:30 AM 33.3°F0.7°C 16.6°F-8.6°C 50% 4.6 mph WNW7.4 kmh WNW 3.5 mph5.6 kmh 29.90 in1012.5 mb - 0.00 in0.0 mm 0.00 in0.0 mm
01:40 AM 33.4°F0.8°C 16.3°F-8.7°C 49% 5.8 mph W9.3 kmh W 8.1 mph13.0 kmh 29.90 in1012.5 mb - 0.00 in0.0 mm 0.00 in0.0 mm
01:50 AM 33.4°F0.8°C 16.3°F-8.7°C 49% 6.9 mph W11.1 kmh W 11.5 mph18.5 kmh 29.91 in1012.9 mb - 0.00 in0.0 mm 0.00 in0.0 mm
02:00 AM 33.4°F0.8°C 16.3°F-8.7°C 49% 4.6 mph W7.4 kmh W 8.1 mph13.0 kmh 29.93 in1013.5 mb - 0.00 in0.0 mm 0.00 in0.0 mm
02:10 AM 33.3°F0.7°C 16.1°F-8.8°C 49% 3.5 mph WNW5.6 kmh WNW 8.1 mph13.0 kmh 29.93 in1013.5 mb - 0.00 in0.0 mm 0.00 in0.0 mm
02:20 AM 33.3°F0.7°C 16.1°F-8.8°C 49% 4.6 mph W7.4 kmh W 5.8 mph9.3 kmh 29.93 in1013.5 mb - 0.00 in0.0 mm 0.00 in0.0 mm
02:30 AM 33.1°F0.6°C 16.0°F-8.9°C 49% 4.6 mph W7.4 kmh W 8.1 mph13.0 kmh 29.93 in1013.5 mb - 0.00 in0.0 mm 0.00 in0.0 mm
02:40 AM 32.9°F0.5°C 15.8°F-9.0°C 49% Calm Calm 4.6 mph7.4 kmh 29.90 in1012.5 mb - 0.00 in0.0 mm 0.00 in0.0 mm
02:50 AM 32.2°F0.1°C 15.6°F-9.1°C 50% 2.3 mph W3.7 kmh W 5.8 mph9.3 kmh 29.91 in1012.9 mb - 0.00 in0.0 mm 0.00 in0.0 mm
03:00 AM 31.5°F-0.3°C 15.4°F-9.2°C 51% 3.5 mph W5.6 kmh W 5.8 mph9.3 kmh 29.93 in1013.5 mb - 0.00 in0.0 mm 0.00 in0.0 mm
03:10 AM 31.3°F-0.4°C 15.2°F-9.3°C 51% 3.5 mph WNW5.6 kmh WNW 5.8 mph9.3 kmh 29.96 in1014.6 mb - 0.00 in0.0 mm 0.00 in0.0 mm
03:20 AM 31.1°F-0.5°C 15.1°F-9.4°C 51% 3.5 mph W5.6 kmh W 5.8 mph9.3 kmh 29.96 in1014.6 mb - 0.00 in0.0 mm 0.00 in0.0 mm
03:30 AM 30.7°F-0.7°C 14.7°F-9.6°C 51% 4.6 mph SW7.4 kmh SW 5.8 mph9.3 kmh 29.96 in1014.6 mb - 0.00 in0.0 mm 0.00 in0.0 mm
03:40 AM 30.7°F-0.7°C 14.7°F-9.6°C 51% 4.6 mph W7.4 kmh W 8.1 mph13.0 kmh 29.96 in1014.6 mb - 0.00 in0.0 mm 0.00 in0.0 mm
03:50 AM 30.6°F-0.8°C 14.6°F-9.7°C 51% 3.5 mph WSW5.6 kmh WSW 4.6 mph7.4 kmh 29.96 in1014.6 mb - 0.00 in0.0 mm 0.00 in0.0 mm
04:00 AM 30.4°F-0.9°C 14.4°F-9.8°C 51% 3.5 mph W5.6 kmh W 8.1 mph13.0 kmh 29.96 in1014.6 mb - 0.00 in0.0 mm 0.00 in0.0 mm
04:10 AM 30.1°F-1.1°C 14.1°F-9.9°C 51% 3.5 mph WSW5.6 kmh WSW 8.1 mph13.0 kmh 29.96 in1014.6 mb - 0.00 in0.0 mm 0.00 in0.0 mm
04:20 AM 29.8°F-1.2°C 13.9°F-10.1°C 51% 4.6 mph SW7.4 kmh SW 6.9 mph11.1 kmh 29.97 in1014.9 mb - 0.00 in0.0 mm 0.00 in0.0 mm
04:30 AM 29.7°F-1.3°C 13.7°F-10.2°C 51% 3.5 mph NNW5.6 kmh NNW 3.5 mph5.6 kmh 29.99 in1015.6 mb - 0.00 in0.0 mm 0.00 in0.0 mm
04:40 AM 29.8°F-1.2°C 13.9°F-10.1°C 51% 4.6 mph WNW7.4 kmh WNW 5.8 mph9.3 kmh 29.99 in1015.6 mb - 0.00 in0.0 mm 0.00 in0.0 mm
04:50 AM 29.8°F-1.2°C 13.4°F-10.3°C 50% 5.8 mph NW9.3 kmh NW 8.1 mph13.0 kmh 29.99 in1015.6 mb - 0.00 in0.0 mm 0.00 in0.0 mm
05:00 AM 29.8°F-1.2°C 13.4°F-10.3°C 50% 4.6 mph W7.4 kmh W 9.2 mph14.8 kmh 29.99 in1015.6 mb - 0.00 in0.0 mm 0.00 in0.0 mm
05:10 AM 29.8°F-1.2°C 13.4°F-10.3°C 50% 3.5 mph WSW5.6 kmh WSW 5.8 mph9.3 kmh 29.99 in1015.6 mb - 0.00 in0.0 mm 0.00 in0.0 mm
05:20 AM 29.5°F-1.4°C 13.1°F-10.5°C 50% 5.8 mph NW9.3 kmh NW 8.1 mph13.0 kmh 29.99 in1015.6 mb - 0.00 in0.0 mm 0.00 in0.0 mm
05:30 AM 29.5°F-1.4°C 13.1°F-10.5°C 50% 4.6 mph NW7.4 kmh NW 8.1 mph13.0 kmh 30.02 in1016.6 mb - 0.00 in0.0 mm 0.00 in0.0 mm
05:40 AM 29.5°F-1.4°C 13.1°F-10.5°C 50% 5.8 mph WSW9.3 kmh WSW 12.7 mph20.4 kmh 30.02 in1016.6 mb - 0.00 in0.0 mm 0.00 in0.0 mm
05:50 AM 29.5°F-1.4°C 13.1°F-10.5°C 50% 5.8 mph WNW9.3 kmh WNW 8.1 mph13.0 kmh 30.02 in1016.6 mb - 0.00 in0.0 mm 0.00 in0.0 mm
06:00 AM 29.5°F-1.4°C 13.1°F-10.5°C 50% 3.5 mph NW5.6 kmh NW 3.5 mph5.6 kmh 30.02 in1016.6 mb - 0.00 in0.0 mm 0.00 in0.0 mm
06:10 AM 29.7°F-1.3°C 13.3°F-10.4°C 50% 4.6 mph W7.4 kmh W 8.1 mph13.0 kmh 30.02 in1016.6 mb - 0.00 in0.0 mm 0.00 in0.0 mm
06:20 AM 30.0°F-1.1°C 13.1°F-10.5°C 49% 4.6 mph W7.4 kmh W 5.8 mph9.3 kmh 30.02 in1016.6 mb - 0.00 in0.0 mm 0.00 in0.0 mm
06:30 AM 30.5°F-0.8°C 13.6°F-10.2°C 49% 5.8 mph NW9.3 kmh NW 6.9 mph11.1 kmh 30.05 in1017.6 mb - 0.00 in0.0 mm 0.00 in0.0 mm
06:40 AM 31.0°F-0.6°C 14.0°F-10.0°C 49% 5.8 mph W9.3 kmh W 10.4 mph16.7 kmh 30.05 in1017.6 mb - 0.00 in0.0 mm 0.00 in0.0 mm
06:50 AM 32.1°F0.1°C 14.6°F-9.7°C 48% 4.6 mph WNW7.4 kmh WNW 10.4 mph16.7 kmh 30.05 in1017.6 mb - 0.00 in0.0 mm 0.00 in0.0 mm
07:00 AM 33.1°F0.6°C 15.5°F-9.2°C 48% 4.6 mph NW7.4 kmh NW 10.4 mph16.7 kmh 30.05 in1017.6 mb - 0.00 in0.0 mm 0.00 in0.0 mm
07:10 AM 33.8°F1.0°C 16.2°F-8.8°C 48% 4.6 mph WNW7.4 kmh WNW 9.2 mph14.8 kmh 30.07 in1018.3 mb - 0.00 in0.0 mm 0.00 in0.0 mm
07:20 AM 34.1°F1.2°C 15.9°F-8.9°C 47% 4.6 mph NW7.4 kmh NW 8.1 mph13.0 kmh 30.07 in1018.3 mb - 0.00 in0.0 mm 0.00 in0.0 mm
07:30 AM 34.9°F1.6°C 16.7°F-8.5°C 47% 4.6 mph WNW7.4 kmh WNW 8.1 mph13.0 kmh 30.07 in1018.3 mb - 0.00 in0.0 mm 0.00 in0.0 mm
07:40 AM 36.4°F2.4°C 17.5°F-8.1°C 46% 5.8 mph W9.3 kmh W 10.4 mph16.7 kmh 30.07 in1018.3 mb - 0.00 in0.0 mm 0.00 in0.0 mm
07:50 AM 37.2°F2.9°C 17.3°F-8.2°C 44% 8.1 mph NW13.0 kmh NW 12.7 mph20.4 kmh 30.07 in1018.3 mb - 0.00 in0.0 mm 0.00 in0.0 mm
08:00 AM 36.8°F2.7°C 16.9°F-8.4°C 44% 6.9 mph WNW11.1 kmh WNW 8.1 mph13.0 kmh 30.07 in1018.3 mb - 0.00 in0.0 mm 0.00 in0.0 mm
08:10 AM 36.8°F2.7°C 15.2°F-9.3°C 41% 9.2 mph NW14.8 kmh NW 17.3 mph27.8 kmh 30.11 in1019.6 mb - 0.00 in0.0 mm 0.00 in0.0 mm
08:20 AM 36.1°F2.3°C 14.6°F-9.7°C 41% 8.1 mph NW13.0 kmh NW 12.7 mph20.4 kmh 30.11 in1019.6 mb - 0.00 in0.0 mm 0.00 in0.0 mm
08:30 AM 38.0°F3.3°C 17.5°F-8.1°C 43% 6.9 mph NW11.1 kmh NW 12.7 mph20.4 kmh 30.11 in1019.6 mb - 0.00 in0.0 mm 0.00 in0.0 mm
08:40 AM 39.0°F3.9°C 17.3°F-8.2°C 41% 8.1 mph NW13.0 kmh NW 8.1 mph13.0 kmh 30.11 in1019.6 mb - 0.00 in0.0 mm 0.00 in0.0 mm
08:50 AM 36.5°F2.5°C 15.0°F-9.4°C 41% 9.2 mph NW14.8 kmh NW 11.5 mph18.5 kmh 30.11 in1019.6 mb - 0.00 in0.0 mm 0.00 in0.0 mm
09:00 AM 37.2°F2.9°C 15.6°F-9.1°C 41% 4.6 mph NW7.4 kmh NW 5.8 mph9.3 kmh 30.11 in1019.6 mb - 0.00 in0.0 mm 0.00 in0.0 mm
09:10 AM 37.8°F3.2°C 16.2°F-8.8°C 41% 8.1 mph W13.0 kmh W 15.0 mph24.1 kmh 30.11 in1019.6 mb - 0.00 in0.0 mm 0.00 in0.0 mm
09:20 AM 37.9°F3.3°C 15.7°F-9.1°C 40% 9.2 mph NW14.8 kmh NW 19.6 mph31.5 kmh 30.11 in1019.6 mb - 0.00 in0.0 mm 0.00 in0.0 mm
09:30 AM 39.9°F4.4°C 17.5°F-8.1°C 40% 9.2 mph NNW14.8 kmh NNW 17.3 mph27.8 kmh 30.13 in1020.3 mb - 0.00 in0.0 mm 0.00 in0.0 mm
09:40 AM 41.2°F5.1°C 17.5°F-8.1°C 38% 8.1 mph WNW13.0 kmh WNW 8.1 mph13.0 kmh 30.13 in1020.3 mb - 0.00 in0.0 mm 0.00 in0.0 mm
09:50 AM 40.9°F4.9°C 17.2°F-8.2°C 38% 10.4 mph NW16.7 kmh NW 12.7 mph20.4 kmh 30.13 in1020.3 mb - 0.00 in0.0 mm 0.00 in0.0 mm
10:00 AM 41.1°F5.1°C 17.4°F-8.1°C 38% 11.5 mph NW18.5 kmh NW 17.3 mph27.8 kmh 30.13 in1020.3 mb - 0.00 in0.0 mm 0.00 in0.0 mm
10:10 AM 43.5°F6.4°C 18.9°F-7.3°C 37% 6.9 mph NW11.1 kmh NW 9.2 mph14.8 kmh 30.13 in1020.3 mb - 0.00 in0.0 mm 0.00 in0.0 mm
10:20 AM 43.3°F6.3°C 18.8°F-7.3°C 37% 8.1 mph NW13.0 kmh NW 12.7 mph20.4 kmh 30.13 in1020.3 mb - 0.00 in0.0 mm 0.00 in0.0 mm
10:30 AM 43.1°F6.2°C 18.5°F-7.5°C 37% 8.1 mph NW13.0 kmh NW 10.4 mph16.7 kmh 30.13 in1020.3 mb - 0.00 in0.0 mm 0.00 in0.0 mm
10:40 AM 44.4°F6.9°C 19.7°F-6.8°C 37% 6.9 mph WNW11.1 kmh WNW 8.1 mph13.0 kmh 30.13 in1020.3 mb - 0.00 in0.0 mm 0.00 in0.0 mm
10:50 AM 44.9°F7.2°C 20.1°F-6.6°C 37% 5.8 mph WNW9.3 kmh WNW 13.8 mph22.2 kmh 30.13 in1020.3 mb - 0.00 in0.0 mm 0.00 in0.0 mm
11:00 AM 44.6°F7.0°C 19.9°F-6.7°C 37% 12.7 mph NNW20.4 kmh NNW 17.3 mph27.8 kmh 30.13 in1020.3 mb - 0.00 in0.0 mm 0.00 in0.0 mm
11:10 AM 43.7°F6.5°C 19.1°F-7.2°C 37% 6.9 mph W11.1 kmh W 10.4 mph16.7 kmh 30.13 in1020.3 mb - 0.00 in0.0 mm 0.00 in0.0 mm
11:20 AM 44.2°F6.8°C 19.6°F-6.9°C 37% 8.1 mph NW13.0 kmh NW 10.4 mph16.7 kmh 30.13 in1020.3 mb - 0.00 in0.0 mm 0.00 in0.0 mm
11:30 AM 43.8°F6.6°C 19.2°F-7.1°C 37% 9.2 mph NW14.8 kmh NW 10.4 mph16.7 kmh 30.13 in1020.3 mb - 0.00 in0.0 mm 0.00 in0.0 mm
11:40 AM 44.3°F6.8°C 19.6°F-6.9°C 37% 6.9 mph NNW11.1 kmh NNW 12.7 mph20.4 kmh 30.16 in1021.3 mb - 0.00 in0.0 mm 0.00 in0.0 mm
11:50 AM 44.9°F7.2°C 20.2°F-6.6°C 37% 6.9 mph NW11.1 kmh NW 12.7 mph20.4 kmh 30.16 in1021.3 mb - 0.00 in0.0 mm 0.00 in0.0 mm
12:00 PM 45.3°F7.4°C 20.5°F-6.4°C 37% 6.9 mph W11.1 kmh W 12.7 mph20.4 kmh 30.16 in1021.3 mb - 0.00 in0.0 mm 0.00 in0.0 mm
12:10 PM 46.3°F7.9°C 21.4°F-5.9°C 37% 5.8 mph W9.3 kmh W 5.8 mph9.3 kmh 30.16 in1021.3 mb - 0.00 in0.0 mm 0.00 in0.0 mm
12:20 PM 45.5°F7.5°C 20.7°F-6.3°C 37% 5.8 mph W9.3 kmh W 12.7 mph20.4 kmh 30.16 in1021.3 mb - 0.00 in0.0 mm 0.00 in0.0 mm
12:30 PM 46.2°F7.9°C 21.3°F-5.9°C 37% 4.6 mph W7.4 kmh W 10.4 mph16.7 kmh 30.16 in1021.3 mb - 0.00 in0.0 mm 0.00 in0.0 mm
12:40 PM 46.9°F8.3°C 22.0°F-5.6°C 37% 6.9 mph WNW11.1 kmh WNW 10.4 mph16.7 kmh 30.16 in1021.3 mb - 0.00 in0.0 mm 0.00 in0.0 mm
12:50 PM 46.1°F7.8°C 21.3°F-5.9°C 37% 5.8 mph NW9.3 kmh NW 15.0 mph24.1 kmh 30.15 in1021.0 mb - 0.00 in0.0 mm 0.00 in0.0 mm
01:00 PM 45.2°F7.3°C 20.4°F-6.4°C 37% 5.8 mph W9.3 kmh W 6.9 mph11.1 kmh 30.13 in1020.3 mb - 0.00 in0.0 mm 0.00 in0.0 mm
01:10 PM 45.9°F7.7°C 21.0°F-6.1°C 37% 8.1 mph W13.0 kmh W 9.2 mph14.8 kmh 30.16 in1021.3 mb - 0.00 in0.0 mm 0.00 in0.0 mm
01:20 PM 44.8°F7.1°C 20.1°F-6.6°C 37% 8.1 mph NNW13.0 kmh NNW 17.3 mph27.8 kmh 30.16 in1021.3 mb - 0.00 in0.0 mm 0.00 in0.0 mm
01:30 PM 43.3°F6.3°C 18.7°F-7.4°C 37% 10.4 mph NW16.7 kmh NW 13.8 mph22.2 kmh 30.16 in1021.3 mb - 0.00 in0.0 mm 0.00 in0.0 mm
01:40 PM 43.4°F6.3°C 18.8°F-7.3°C 37% 10.4 mph NW16.7 kmh NW 12.7 mph20.4 kmh 30.16 in1021.3 mb - 0.00 in0.0 mm 0.00 in0.0 mm
01:50 PM 44.3°F6.8°C 19.6°F-6.9°C 37% 9.2 mph NW14.8 kmh NW 17.3 mph27.8 kmh 30.16 in1021.3 mb - 0.00 in0.0 mm 0.00 in0.0 mm
02:00 PM 43.7°F6.5°C 19.1°F-7.2°C 37% 8.1 mph NW13.0 kmh NW 12.7 mph20.4 kmh 30.16 in1021.3 mb - 0.00 in0.0 mm 0.00 in0.0 mm
02:10 PM 44.6°F7.0°C 19.9°F-6.7°C 37% 5.8 mph NW9.3 kmh NW 8.1 mph13.0 kmh 30.16 in1021.3 mb - 0.00 in0.0 mm 0.00 in0.0 mm
02:20 PM 44.4°F6.9°C 19.8°F-6.8°C 37% 10.4 mph NNW16.7 kmh NNW 15.0 mph24.1 kmh 30.16 in1021.3 mb - 0.00 in0.0 mm 0.00 in0.0 mm
02:30 PM 44.1°F6.7°C 19.4°F-7.0°C 37% 6.9 mph NW11.1 kmh NW 8.1 mph13.0 kmh 30.16 in1021.3 mb - 0.00 in0.0 mm 0.00 in0.0 mm
02:40 PM 44.2°F6.8°C 19.6°F-6.9°C 37% 6.9 mph NW11.1 kmh NW 10.4 mph16.7 kmh 30.16 in1021.3 mb - 0.00 in0.0 mm 0.00 in0.0 mm
02:50 PM 43.3°F6.3°C 18.1°F-7.7°C 36% 10.4 mph NW16.7 kmh NW 19.6 mph31.5 kmh 30.17 in1021.7 mb - 0.00 in0.0 mm 0.00 in0.0 mm
03:00 PM 42.3°F5.7°C 17.8°F-7.9°C 37% 8.1 mph WNW13.0 kmh WNW 11.5 mph18.5 kmh 30.19 in1022.4 mb - 0.00 in0.0 mm 0.00 in0.0 mm
03:10 PM 43.4°F6.3°C 18.8°F-7.3°C 37% 5.8 mph NW9.3 kmh NW 5.8 mph9.3 kmh 30.19 in1022.4 mb - 0.00 in0.0 mm 0.00 in0.0 mm
03:20 PM 43.8°F6.6°C 19.1°F-7.2°C 37% 5.8 mph WSW9.3 kmh WSW 9.2 mph14.8 kmh 30.19 in1022.4 mb - 0.00 in0.0 mm 0.00 in0.0 mm
03:30 PM 43.2°F6.2°C 18.6°F-7.4°C 37% 8.1 mph W13.0 kmh W 12.7 mph20.4 kmh 30.19 in1022.4 mb - 0.00 in0.0 mm 0.00 in0.0 mm
03:40 PM 43.2°F6.2°C 18.6°F-7.4°C 37% 5.8 mph WNW9.3 kmh WNW 10.4 mph16.7 kmh 30.19 in1022.4 mb - 0.00 in0.0 mm 0.00 in0.0 mm
03:50 PM 43.0°F6.1°C 19.1°F-7.2°C 38% 4.6 mph W7.4 kmh W 8.1 mph13.0 kmh 30.19 in1022.4 mb - 0.00 in0.0 mm 0.00 in0.0 mm
04:00 PM 43.0°F6.1°C 19.1°F-7.2°C 38% 6.9 mph WNW11.1 kmh WNW 8.1 mph13.0 kmh 30.19 in1022.4 mb - 0.00 in0.0 mm 0.00 in0.0 mm
04:10 PM 42.6°F5.9°C 18.1°F-7.7°C 37% 5.8 mph WNW9.3 kmh WNW 8.1 mph13.0 kmh 30.19 in1022.4 mb - 0.00 in0.0 mm 0.00 in0.0 mm
04:20 PM 42.1°F5.6°C 16.4°F-8.7°C 35% 5.8 mph NW9.3 kmh NW 10.4 mph16.7 kmh 30.19 in1022.4 mb - 0.00 in0.0 mm 0.00 in0.0 mm
04:30 PM 41.6°F5.3°C 16.0°F-8.9°C 35% 6.9 mph NW11.1 kmh NW 10.4 mph16.7 kmh 30.19 in1022.4 mb - 0.00 in0.0 mm 0.00 in0.0 mm
04:40 PM 41.0°F5.0°C 16.0°F-8.9°C 36% 9.2 mph NW14.8 kmh NW 10.4 mph16.7 kmh 30.19 in1022.4 mb - 0.00 in0.0 mm 0.00 in0.0 mm
04:50 PM 40.6°F4.8°C 15.7°F-9.1°C 36% 9.2 mph NNW14.8 kmh NNW 11.5 mph18.5 kmh 30.21 in1023.0 mb - 0.00 in0.0 mm 0.00 in0.0 mm
05:00 PM 40.1°F4.5°C 15.2°F-9.3°C 36% 5.8 mph NW9.3 kmh NW 8.1 mph13.0 kmh 30.22 in1023.4 mb - 0.00 in0.0 mm 0.00 in0.0 mm
05:10 PM 39.9°F4.4°C 15.1°F-9.4°C 36% 5.8 mph WNW9.3 kmh WNW 9.2 mph14.8 kmh 30.22 in1023.4 mb - 0.00 in0.0 mm 0.00 in0.0 mm
05:20 PM 39.6°F4.2°C 14.8°F-9.6°C 36% 4.6 mph NW7.4 kmh NW 5.8 mph9.3 kmh 30.22 in1023.4 mb - 0.00 in0.0 mm 0.00 in0.0 mm
05:30 PM 39.3°F4.1°C 14.5°F-9.7°C 36% 5.8 mph NW9.3 kmh NW 8.1 mph13.0 kmh 30.22 in1023.4 mb - 0.00 in0.0 mm 0.00 in0.0 mm
05:40 PM 38.9°F3.8°C 14.2°F-9.9°C 36% 5.8 mph NW9.3 kmh NW 9.2 mph14.8 kmh 30.25 in1024.4 mb - 0.00 in0.0 mm 0.00 in0.0 mm
05:50 PM 38.5°F3.6°C 13.8°F-10.1°C 36% 8.1 mph WNW13.0 kmh WNW 12.7 mph20.4 kmh 30.25 in1024.4 mb - 0.00 in0.0 mm 0.00 in0.0 mm
06:00 PM 38.0°F3.3°C 13.4°F-10.3°C 36% 5.8 mph NW9.3 kmh NW 9.2 mph14.8 kmh 30.25 in1024.4 mb - 0.00 in0.0 mm 0.00 in0.0 mm
06:10 PM 37.4°F3.0°C 12.8°F-10.7°C 36% 3.5 mph NW5.6 kmh NW 5.8 mph9.3 kmh 30.25 in1024.4 mb - 0.00 in0.0 mm 0.00 in0.0 mm
06:20 PM 37.2°F2.9°C 12.7°F-10.7°C 36% 3.5 mph NW5.6 kmh NW 5.8 mph9.3 kmh 30.27 in1025.1 mb - 0.00 in0.0 mm 0.00 in0.0 mm
06:30 PM 36.6°F2.6°C 12.1°F-11.1°C 36% 3.5 mph W5.6 kmh W 3.5 mph5.6 kmh 30.28 in1025.4 mb - 0.00 in0.0 mm 0.00 in0.0 mm
06:40 PM 36.0°F2.2°C 11.6°F-11.3°C 36% Calm Calm -- 30.28 in1025.4 mb - 0.00 in0.0 mm 0.00 in0.0 mm
06:50 PM 35.4°F1.9°C 11.7°F-11.3°C 37% 3.5 mph WNW5.6 kmh WNW 5.8 mph9.3 kmh 30.28 in1025.4 mb - 0.00 in0.0 mm 0.00 in0.0 mm
07:00 PM 35.2°F1.8°C 11.5°F-11.4°C 37% 3.5 mph NW5.6 kmh NW 3.5 mph5.6 kmh 30.28 in1025.4 mb - 0.00 in0.0 mm 0.00 in0.0 mm
07:10 PM 35.1°F1.7°C 11.4°F-11.4°C 37% 3.5 mph NW5.6 kmh NW 5.8 mph9.3 kmh 30.28 in1025.4 mb - 0.00 in0.0 mm 0.00 in0.0 mm
07:20 PM 34.7°F1.5°C 11.0°F-11.7°C 37% Calm Calm -- 30.29 in1025.7 mb - 0.00 in0.0 mm 0.00 in0.0 mm
07:30 PM 34.3°F1.3°C 10.7°F-11.8°C 37% Calm Calm -- 30.31 in1026.4 mb - 0.00 in0.0 mm 0.00 in0.0 mm
07:40 PM 33.8°F1.0°C 10.2°F-12.1°C 37% Calm Calm -- 30.31 in1026.4 mb - 0.00 in0.0 mm 0.00 in0.0 mm
07:50 PM 33.4°F0.8°C 9.9°F-12.3°C 37% Calm Calm -- 30.31 in1026.4 mb - 0.00 in0.0 mm 0.00 in0.0 mm
08:00 PM 33.0°F0.6°C 9.5°F-12.5°C 37% Calm Calm -- 30.31 in1026.4 mb - 0.00 in0.0 mm 0.00 in0.0 mm
08:10 PM 32.5°F0.3°C 9.1°F-12.7°C 37% Calm Calm -- 30.34 in1027.4 mb - 0.00 in0.0 mm 0.00 in0.0 mm
08:20 PM 32.2°F0.1°C 9.4°F-12.6°C 38% Calm Calm -- 30.34 in1027.4 mb - 0.00 in0.0 mm 0.00 in0.0 mm
08:30 PM 32.2°F0.1°C 9.4°F-12.6°C 38% Calm Calm -- 30.34 in1027.4 mb - 0.00 in0.0 mm 0.00 in0.0 mm
08:40 PM 31.0°F-0.6°C 8.3°F-13.2°C 38% Calm Calm -- 30.34 in1027.4 mb - 0.00 in0.0 mm 0.00 in0.0 mm
08:50 PM 30.4°F-0.9°C 9.5°F-12.5°C 41% Calm Calm -- 30.35 in1027.8 mb - 0.00 in0.0 mm 0.00 in0.0 mm
09:00 PM 30.7°F-0.7°C 9.2°F-12.7°C 40% Calm Calm -- 30.37 in1028.4 mb - 0.00 in0.0 mm 0.00 in0.0 mm
09:10 PM 29.7°F-1.3°C 8.8°F-12.9°C 41% Calm Calm -- 30.34 in1027.4 mb - 0.00 in0.0 mm 0.00 in0.0 mm
09:20 PM 29.1°F-1.6°C 8.3°F-13.2°C 41% Calm Calm -- 30.34 in1027.4 mb - 0.00 in0.0 mm 0.00 in0.0 mm
09:30 PM 28.8°F-1.8°C 8.6°F-13.0°C 42% Calm Calm -- 30.37 in1028.4 mb - 0.00 in0.0 mm 0.00 in0.0 mm
09:40 PM 28.4°F-2.0°C 7.6°F-13.6°C 41% Calm Calm -- 30.37 in1028.4 mb - 0.00 in0.0 mm 0.00 in0.0 mm
09:50 PM 28.4°F-2.0°C 7.7°F-13.5°C 41% Calm Calm -- 30.37 in1028.4 mb - 0.00 in0.0 mm 0.00 in0.0 mm
10:00 PM 28.1°F-2.2°C 7.9°F-13.4°C 42% Calm Calm -- 30.37 in1028.4 mb - 0.00 in0.0 mm 0.00 in0.0 mm
10:10 PM 27.6°F-2.4°C 7.9°F-13.4°C 43% Calm Calm -- 30.37 in1028.4 mb - 0.00 in0.0 mm 0.00 in0.0 mm
10:20 PM 27.5°F-2.5°C 7.9°F-13.4°C 43% Calm Calm -- 30.37 in1028.4 mb - 0.00 in0.0 mm 0.00 in0.0 mm
10:30 PM 26.7°F-2.9°C 9.6°F-12.4°C 48% Calm Calm -- 30.37 in1028.4 mb - 0.00 in0.0 mm 0.00 in0.0 mm
10:40 PM 26.6°F-3.0°C 9.5°F-12.5°C 48% Calm Calm -- 30.40 in1029.5 mb - 0.00 in0.0 mm 0.00 in0.0 mm
10:50 PM 26.4°F-3.1°C 9.4°F-12.6°C 48% Calm Calm -- 30.40 in1029.5 mb - 0.00 in0.0 mm 0.00 in0.0 mm
11:00 PM 26.3°F-3.2°C 9.3°F-12.6°C 48% Calm Calm -- 30.37 in1028.4 mb - 0.00 in0.0 mm 0.00 in0.0 mm
11:10 PM 25.9°F-3.4°C 8.9°F-12.8°C 48% Calm Calm -- 30.40 in1029.5 mb - 0.00 in0.0 mm 0.00 in0.0 mm
11:20 PM 25.9°F-3.4°C 8.9°F-12.8°C 48% Calm Calm -- 30.40 in1029.5 mb - 0.00 in0.0 mm 0.00 in0.0 mm
11:30 PM 25.9°F-3.4°C 8.9°F-12.8°C 48% Calm Calm -- 30.40 in1029.5 mb - 0.00 in0.0 mm 0.00 in0.0 mm
11:40 PM 25.5°F-3.6°C 9.0°F-12.8°C 49% Calm Calm -- 30.40 in1029.5 mb - 0.00 in0.0 mm 0.00 in0.0 mm
11:50 PM 25.3°F-3.7°C 8.8°F-12.9°C 49% Calm Calm -- 30.40 in1029.5 mb - 0.00 in0.0 mm 0.00 in0.0 mm